sensor_id;sensor_type;location;lat;lon;timestamp;P1;durP1;ratioP1;P2;durP2;ratioP2
34489;SDS011;20730;49.372;7.324;2023-01-29T00:01:22;6.15;;;3.53;;
34489;SDS011;20730;49.372;7.324;2023-01-29T00:03:49;6.32;;;3.10;;
34489;SDS011;20730;49.372;7.324;2023-01-29T00:06:17;5.22;;;3.97;;
34489;SDS011;20730;49.372;7.324;2023-01-29T00:08:44;4.53;;;2.88;;
34489;SDS011;20730;49.372;7.324;2023-01-29T00:11:11;4.68;;;3.35;;
34489;SDS011;20730;49.372;7.324;2023-01-29T00:13:38;4.70;;;3.05;;
34489;SDS011;20730;49.372;7.324;2023-01-29T00:16:05;6.15;;;3.28;;
34489;SDS011;20730;49.372;7.324;2023-01-29T00:18:32;7.00;;;3.63;;
34489;SDS011;20730;49.372;7.324;2023-01-29T00:20:59;4.07;;;3.53;;
34489;SDS011;20730;49.372;7.324;2023-01-29T00:23:25;3.65;;;2.67;;
34489;SDS011;20730;49.372;7.324;2023-01-29T00:25:52;3.65;;;3.03;;
34489;SDS011;20730;49.372;7.324;2023-01-29T00:28:19;4.80;;;3.42;;
34489;SDS011;20730;49.372;7.324;2023-01-29T00:30:45;3.65;;;2.80;;
34489;SDS011;20730;49.372;7.324;2023-01-29T00:33:12;4.07;;;3.25;;
34489;SDS011;20730;49.372;7.324;2023-01-29T00:35:39;5.10;;;3.38;;
34489;SDS011;20730;49.372;7.324;2023-01-29T00:38:06;4.05;;;3.28;;
34489;SDS011;20730;49.372;7.324;2023-01-29T00:40:35;6.07;;;3.58;;
34489;SDS011;20730;49.372;7.324;2023-01-29T00:43:23;6.63;;;3.50;;
34489;SDS011;20730;49.372;7.324;2023-01-29T00:46:09;3.45;;;2.97;;
34489;SDS011;20730;49.372;7.324;2023-01-29T00:48:36;3.78;;;3.13;;
34489;SDS011;20730;49.372;7.324;2023-01-29T00:51:03;5.97;;;3.58;;
34489;SDS011;20730;49.372;7.324;2023-01-29T00:53:30;5.03;;;3.75;;
34489;SDS011;20730;49.372;7.324;2023-01-29T00:55:56;3.50;;;3.05;;
34489;SDS011;20730;49.372;7.324;2023-01-29T00:58:23;3.78;;;3.08;;
34489;SDS011;20730;49.372;7.324;2023-01-29T01:03:21;4.63;;;3.22;;
34489;SDS011;20730;49.372;7.324;2023-01-29T01:05:48;3.60;;;3.13;;
34489;SDS011;20730;49.372;7.324;2023-01-29T01:08:14;5.30;;;3.50;;
34489;SDS011;20730;49.372;7.324;2023-01-29T01:11:01;3.83;;;3.15;;
34489;SDS011;20730;49.372;7.324;2023-01-29T01:13:33;3.90;;;3.10;;
34489;SDS011;20730;49.372;7.324;2023-01-29T01:16:00;5.07;;;3.38;;
34489;SDS011;20730;49.372;7.324;2023-01-29T01:18:30;4.22;;;3.47;;
34489;SDS011;20730;49.372;7.324;2023-01-29T01:20:57;8.48;;;3.95;;
34489;SDS011;20730;49.372;7.324;2023-01-29T01:23:24;7.00;;;3.70;;
34489;SDS011;20730;49.372;7.324;2023-01-29T01:25:51;5.10;;;3.75;;
34489;SDS011;20730;49.372;7.324;2023-01-29T01:28:17;4.70;;;3.13;;
34489;SDS011;20730;49.372;7.324;2023-01-29T01:30:44;4.30;;;3.63;;
34489;SDS011;20730;49.372;7.324;2023-01-29T01:33:11;5.07;;;3.40;;
34489;SDS011;20730;49.372;7.324;2023-01-29T01:35:38;5.57;;;3.15;;
34489;SDS011;20730;49.372;7.324;2023-01-29T01:38:06;4.68;;;2.70;;
34489;SDS011;20730;49.372;7.324;2023-01-29T01:40:32;4.22;;;3.00;;
34489;SDS011;20730;49.372;7.324;2023-01-29T01:43:00;3.90;;;2.65;;
34489;SDS011;20730;49.372;7.324;2023-01-29T01:45:33;4.28;;;2.50;;
34489;SDS011;20730;49.372;7.324;2023-01-29T01:53:10;5.75;;;3.38;;
34489;SDS011;20730;49.372;7.324;2023-01-29T01:55:51;7.15;;;3.28;;
34489;SDS011;20730;49.372;7.324;2023-01-29T01:58:32;5.95;;;3.50;;
34489;SDS011;20730;49.372;7.324;2023-01-29T02:01:02;3.85;;;2.97;;
34489;SDS011;20730;49.372;7.324;2023-01-29T02:03:30;7.57;;;3.17;;
34489;SDS011;20730;49.372;7.324;2023-01-29T02:06:20;7.30;;;3.20;;
34489;SDS011;20730;49.372;7.324;2023-01-29T02:09:10;4.75;;;3.00;;
34489;SDS011;20730;49.372;7.324;2023-01-29T02:11:59;4.55;;;3.88;;
34489;SDS011;20730;49.372;7.324;2023-01-29T02:14:27;4.95;;;3.60;;
34489;SDS011;20730;49.372;7.324;2023-01-29T02:16:54;5.55;;;3.42;;
34489;SDS011;20730;49.372;7.324;2023-01-29T02:25:43;7.82;;;4.18;;
34489;SDS011;20730;49.372;7.324;2023-01-29T02:28:20;7.97;;;4.47;;
34489;SDS011;20730;49.372;7.324;2023-01-29T02:33:36;6.82;;;4.35;;
34489;SDS011;20730;49.372;7.324;2023-01-29T02:36:18;5.90;;;4.53;;
34489;SDS011;20730;49.372;7.324;2023-01-29T02:41:32;9.23;;;4.80;;
34489;SDS011;20730;49.372;7.324;2023-01-29T02:46:52;6.10;;;4.18;;
34489;SDS011;20730;49.372;7.324;2023-01-29T02:49:24;6.00;;;3.38;;
34489;SDS011;20730;49.372;7.324;2023-01-29T02:57:18;5.60;;;3.25;;
34489;SDS011;20730;49.372;7.324;2023-01-29T03:00:06;4.47;;;3.55;;
34489;SDS011;20730;49.372;7.324;2023-01-29T03:03:22;4.25;;;2.95;;
34489;SDS011;20730;49.372;7.324;2023-01-29T03:05:51;6.20;;;3.15;;
34489;SDS011;20730;49.372;7.324;2023-01-29T03:08:29;5.55;;;3.53;;
34489;SDS011;20730;49.372;7.324;2023-01-29T03:11:09;5.82;;;4.07;;
34489;SDS011;20730;49.372;7.324;2023-01-29T03:13:48;7.22;;;3.90;;
34489;SDS011;20730;49.372;7.324;2023-01-29T03:16:25;4.88;;;3.55;;
34489;SDS011;20730;49.372;7.324;2023-01-29T03:18:59;5.57;;;3.60;;
34489;SDS011;20730;49.372;7.324;2023-01-29T03:21:31;5.60;;;3.67;;
34489;SDS011;20730;49.372;7.324;2023-01-29T03:24:17;6.05;;;3.47;;
34489;SDS011;20730;49.372;7.324;2023-01-29T03:27:12;4.53;;;3.30;;
34489;SDS011;20730;49.372;7.324;2023-01-29T03:29:58;4.57;;;3.40;;
34489;SDS011;20730;49.372;7.324;2023-01-29T03:32:49;4.97;;;3.40;;
34489;SDS011;20730;49.372;7.324;2023-01-29T03:35:21;4.85;;;3.63;;
34489;SDS011;20730;49.372;7.324;2023-01-29T03:37:58;5.72;;;3.45;;
34489;SDS011;20730;49.372;7.324;2023-01-29T03:40:27;6.95;;;4.30;;
34489;SDS011;20730;49.372;7.324;2023-01-29T03:45:57;4.63;;;3.50;;
34489;SDS011;20730;49.372;7.324;2023-01-29T03:48:34;5.15;;;3.63;;
34489;SDS011;20730;49.372;7.324;2023-01-29T03:57:10;5.00;;;3.50;;
34489;SDS011;20730;49.372;7.324;2023-01-29T03:59:34;7.28;;;3.40;;
34489;SDS011;20730;49.372;7.324;2023-01-29T04:02:26;5.65;;;3.78;;
34489;SDS011;20730;49.372;7.324;2023-01-29T04:05:01;7.32;;;3.50;;
34489;SDS011;20730;49.372;7.324;2023-01-29T04:07:45;4.68;;;3.55;;
34489;SDS011;20730;49.372;7.324;2023-01-29T04:10:15;4.53;;;3.00;;
34489;SDS011;20730;49.372;7.324;2023-01-29T04:12:45;5.18;;;3.00;;
34489;SDS011;20730;49.372;7.324;2023-01-29T04:15:15;4.85;;;3.30;;
34489;SDS011;20730;49.372;7.324;2023-01-29T04:17:50;5.15;;;3.33;;
34489;SDS011;20730;49.372;7.324;2023-01-29T04:20:50;6.57;;;3.38;;
34489;SDS011;20730;49.372;7.324;2023-01-29T04:23:22;3.72;;;3.05;;
34489;SDS011;20730;49.372;7.324;2023-01-29T04:25:52;4.75;;;3.47;;
34489;SDS011;20730;49.372;7.324;2023-01-29T04:28:39;4.28;;;3.50;;
34489;SDS011;20730;49.372;7.324;2023-01-29T04:31:12;5.10;;;3.80;;
34489;SDS011;20730;49.372;7.324;2023-01-29T04:33:43;5.63;;;3.65;;
34489;SDS011;20730;49.372;7.324;2023-01-29T04:36:28;4.47;;;3.53;;
34489;SDS011;20730;49.372;7.324;2023-01-29T04:39:10;4.13;;;3.72;;
34489;SDS011;20730;49.372;7.324;2023-01-29T04:41:51;5.65;;;4.10;;
34489;SDS011;20730;49.372;7.324;2023-01-29T04:47:05;6.75;;;4.43;;
34489;SDS011;20730;49.372;7.324;2023-01-29T04:52:08;8.05;;;4.70;;
34489;SDS011;20730;49.372;7.324;2023-01-29T04:59:59;8.23;;;4.75;;
34489;SDS011;20730;49.372;7.324;2023-01-29T05:02:46;6.25;;;4.47;;
34489;SDS011;20730;49.372;7.324;2023-01-29T05:05:13;8.52;;;4.55;;
34489;SDS011;20730;49.372;7.324;2023-01-29T05:07:42;6.05;;;3.97;;
34489;SDS011;20730;49.372;7.324;2023-01-29T05:10:09;4.93;;;3.83;;
34489;SDS011;20730;49.372;7.324;2023-01-29T05:12:37;5.93;;;4.18;;
34489;SDS011;20730;49.372;7.324;2023-01-29T05:15:07;5.57;;;3.88;;
34489;SDS011;20730;49.372;7.324;2023-01-29T05:17:36;4.40;;;3.83;;
34489;SDS011;20730;49.372;7.324;2023-01-29T05:20:03;5.35;;;4.03;;
34489;SDS011;20730;49.372;7.324;2023-01-29T05:22:31;8.70;;;4.00;;
34489;SDS011;20730;49.372;7.324;2023-01-29T05:24:57;6.15;;;3.85;;
34489;SDS011;20730;49.372;7.324;2023-01-29T05:27:28;4.45;;;3.60;;
34489;SDS011;20730;49.372;7.324;2023-01-29T05:30:16;4.78;;;4.07;;
34489;SDS011;20730;49.372;7.324;2023-01-29T05:32:43;6.57;;;4.47;;
34489;SDS011;20730;49.372;7.324;2023-01-29T05:35:10;4.05;;;3.55;;
34489;SDS011;20730;49.372;7.324;2023-01-29T05:37:36;6.07;;;3.58;;
34489;SDS011;20730;49.372;7.324;2023-01-29T05:40:03;4.72;;;3.30;;
34489;SDS011;20730;49.372;7.324;2023-01-29T05:45:00;6.65;;;4.30;;
34489;SDS011;20730;49.372;7.324;2023-01-29T05:47:27;5.47;;;3.55;;
34489;SDS011;20730;49.372;7.324;2023-01-29T05:49:54;5.60;;;4.10;;
34489;SDS011;20730;49.372;7.324;2023-01-29T05:52:20;4.35;;;3.78;;
34489;SDS011;20730;49.372;7.324;2023-01-29T05:54:47;4.85;;;3.80;;
34489;SDS011;20730;49.372;7.324;2023-01-29T05:57:14;5.47;;;3.88;;
34489;SDS011;20730;49.372;7.324;2023-01-29T05:59:41;5.68;;;4.03;;
34489;SDS011;20730;49.372;7.324;2023-01-29T06:02:08;5.78;;;3.95;;
34489;SDS011;20730;49.372;7.324;2023-01-29T06:04:35;6.07;;;3.97;;
34489;SDS011;20730;49.372;7.324;2023-01-29T06:07:01;6.28;;;4.43;;
34489;SDS011;20730;49.372;7.324;2023-01-29T06:09:30;6.22;;;4.60;;
34489;SDS011;20730;49.372;7.324;2023-01-29T06:11:56;7.07;;;4.20;;
34489;SDS011;20730;49.372;7.324;2023-01-29T06:14:23;9.00;;;4.22;;
34489;SDS011;20730;49.372;7.324;2023-01-29T06:16:50;6.60;;;3.85;;
34489;SDS011;20730;49.372;7.324;2023-01-29T06:19:16;5.82;;;4.25;;
34489;SDS011;20730;49.372;7.324;2023-01-29T06:21:43;5.45;;;4.07;;
34489;SDS011;20730;49.372;7.324;2023-01-29T06:24:10;7.38;;;4.20;;
34489;SDS011;20730;49.372;7.324;2023-01-29T06:26:37;9.82;;;4.05;;
34489;SDS011;20730;49.372;7.324;2023-01-29T06:29:03;5.32;;;4.50;;
34489;SDS011;20730;49.372;7.324;2023-01-29T06:31:30;5.07;;;3.65;;
34489;SDS011;20730;49.372;7.324;2023-01-29T06:34:05;6.03;;;4.30;;
34489;SDS011;20730;49.372;7.324;2023-01-29T06:36:32;7.03;;;3.95;;
34489;SDS011;20730;49.372;7.324;2023-01-29T06:38:59;6.60;;;3.90;;
34489;SDS011;20730;49.372;7.324;2023-01-29T06:41:25;5.43;;;3.88;;
34489;SDS011;20730;49.372;7.324;2023-01-29T06:43:52;5.55;;;4.10;;
34489;SDS011;20730;49.372;7.324;2023-01-29T06:46:19;5.38;;;3.85;;
34489;SDS011;20730;49.372;7.324;2023-01-29T06:48:46;6.30;;;4.50;;
34489;SDS011;20730;49.372;7.324;2023-01-29T06:51:12;5.28;;;4.22;;
34489;SDS011;20730;49.372;7.324;2023-01-29T06:53:39;5.78;;;4.25;;
34489;SDS011;20730;49.372;7.324;2023-01-29T06:56:07;7.43;;;4.82;;
34489;SDS011;20730;49.372;7.324;2023-01-29T06:58:37;6.57;;;4.88;;
34489;SDS011;20730;49.372;7.324;2023-01-29T07:01:05;7.68;;;4.90;;
34489;SDS011;20730;49.372;7.324;2023-01-29T07:03:39;6.93;;;5.40;;
34489;SDS011;20730;49.372;7.324;2023-01-29T07:06:07;7.65;;;5.55;;
34489;SDS011;20730;49.372;7.324;2023-01-29T07:08:35;8.10;;;5.72;;
34489;SDS011;20730;49.372;7.324;2023-01-29T07:11:05;8.57;;;5.30;;
34489;SDS011;20730;49.372;7.324;2023-01-29T07:13:32;8.85;;;5.63;;
34489;SDS011;20730;49.372;7.324;2023-01-29T07:16:01;7.38;;;5.35;;
34489;SDS011;20730;49.372;7.324;2023-01-29T07:18:28;9.73;;;6.03;;
34489;SDS011;20730;49.372;7.324;2023-01-29T07:20:56;9.55;;;5.72;;
34489;SDS011;20730;49.372;7.324;2023-01-29T07:23:23;7.32;;;5.63;;
34489;SDS011;20730;49.372;7.324;2023-01-29T07:25:50;8.52;;;5.78;;
34489;SDS011;20730;49.372;7.324;2023-01-29T07:28:17;10.00;;;6.43;;
34489;SDS011;20730;49.372;7.324;2023-01-29T07:30:45;11.68;;;7.53;;
34489;SDS011;20730;49.372;7.324;2023-01-29T07:33:12;12.77;;;7.65;;
34489;SDS011;20730;49.372;7.324;2023-01-29T07:35:40;13.07;;;8.20;;
34489;SDS011;20730;49.372;7.324;2023-01-29T07:38:07;13.70;;;9.15;;
34489;SDS011;20730;49.372;7.324;2023-01-29T07:40:35;13.90;;;8.35;;
34489;SDS011;20730;49.372;7.324;2023-01-29T07:43:03;13.43;;;8.32;;
34489;SDS011;20730;49.372;7.324;2023-01-29T07:47:59;14.85;;;9.88;;
34489;SDS011;20730;49.372;7.324;2023-01-29T07:50:26;11.10;;;6.88;;
34489;SDS011;20730;49.372;7.324;2023-01-29T07:52:54;9.50;;;6.82;;
34489;SDS011;20730;49.372;7.324;2023-01-29T07:55:21;11.55;;;7.43;;
34489;SDS011;20730;49.372;7.324;2023-01-29T07:57:53;18.08;;;9.30;;
34489;SDS011;20730;49.372;7.324;2023-01-29T08:00:20;12.50;;;8.82;;
34489;SDS011;20730;49.372;7.324;2023-01-29T08:02:47;13.65;;;9.30;;
34489;SDS011;20730;49.372;7.324;2023-01-29T08:05:14;12.20;;;8.05;;
34489;SDS011;20730;49.372;7.324;2023-01-29T08:07:40;16.73;;;7.85;;
34489;SDS011;20730;49.372;7.324;2023-01-29T08:10:07;14.27;;;8.30;;
34489;SDS011;20730;49.372;7.324;2023-01-29T08:12:34;14.60;;;9.15;;
34489;SDS011;20730;49.372;7.324;2023-01-29T08:15:01;13.48;;;9.25;;
34489;SDS011;20730;49.372;7.324;2023-01-29T08:17:28;11.10;;;6.82;;
34489;SDS011;20730;49.372;7.324;2023-01-29T08:19:55;14.43;;;7.90;;
34489;SDS011;20730;49.372;7.324;2023-01-29T08:22:21;9.02;;;6.28;;
34489;SDS011;20730;49.372;7.324;2023-01-29T08:24:48;8.50;;;6.18;;
34489;SDS011;20730;49.372;7.324;2023-01-29T08:27:25;10.13;;;6.88;;
34489;SDS011;20730;49.372;7.324;2023-01-29T08:29:52;9.88;;;6.28;;
34489;SDS011;20730;49.372;7.324;2023-01-29T08:32:19;9.57;;;6.95;;
34489;SDS011;20730;49.372;7.324;2023-01-29T08:34:45;10.48;;;6.97;;
34489;SDS011;20730;49.372;7.324;2023-01-29T08:37:12;11.48;;;7.03;;
34489;SDS011;20730;49.372;7.324;2023-01-29T08:39:39;13.27;;;7.55;;
34489;SDS011;20730;49.372;7.324;2023-01-29T08:42:11;10.50;;;6.45;;
34489;SDS011;20730;49.372;7.324;2023-01-29T08:44:37;8.15;;;5.88;;
34489;SDS011;20730;49.372;7.324;2023-01-29T08:47:04;7.78;;;5.60;;
34489;SDS011;20730;49.372;7.324;2023-01-29T08:49:31;7.28;;;5.72;;
34489;SDS011;20730;49.372;7.324;2023-01-29T08:51:57;9.02;;;5.65;;
34489;SDS011;20730;49.372;7.324;2023-01-29T08:54:27;6.85;;;5.65;;
34489;SDS011;20730;49.372;7.324;2023-01-29T08:56:54;8.18;;;4.70;;
34489;SDS011;20730;49.372;7.324;2023-01-29T08:59:20;5.25;;;3.67;;
34489;SDS011;20730;49.372;7.324;2023-01-29T09:01:48;5.97;;;3.67;;
34489;SDS011;20730;49.372;7.324;2023-01-29T09:04:15;4.15;;;3.75;;
34489;SDS011;20730;49.372;7.324;2023-01-29T09:06:42;6.22;;;3.78;;
34489;SDS011;20730;49.372;7.324;2023-01-29T09:09:09;4.97;;;3.30;;
34489;SDS011;20730;49.372;7.324;2023-01-29T09:11:36;4.95;;;3.17;;
34489;SDS011;20730;49.372;7.324;2023-01-29T09:14:03;5.07;;;3.30;;
34489;SDS011;20730;49.372;7.324;2023-01-29T09:16:30;5.53;;;3.03;;
34489;SDS011;20730;49.372;7.324;2023-01-29T09:18:57;3.88;;;3.20;;
34489;SDS011;20730;49.372;7.324;2023-01-29T09:21:23;4.40;;;3.40;;
34489;SDS011;20730;49.372;7.324;2023-01-29T09:23:50;4.53;;;3.47;;
34489;SDS011;20730;49.372;7.324;2023-01-29T09:26:17;5.03;;;3.55;;
34489;SDS011;20730;49.372;7.324;2023-01-29T09:28:44;5.22;;;3.30;;
34489;SDS011;20730;49.372;7.324;2023-01-29T09:31:10;3.70;;;3.22;;
34489;SDS011;20730;49.372;7.324;2023-01-29T09:33:37;4.53;;;3.35;;
34489;SDS011;20730;49.372;7.324;2023-01-29T09:36:04;5.43;;;3.83;;
34489;SDS011;20730;49.372;7.324;2023-01-29T09:38:31;7.70;;;3.83;;
34489;SDS011;20730;49.372;7.324;2023-01-29T09:41:12;4.72;;;3.72;;
34489;SDS011;20730;49.372;7.324;2023-01-29T09:44:04;6.20;;;3.92;;
34489;SDS011;20730;49.372;7.324;2023-01-29T09:46:38;5.13;;;4.20;;
34489;SDS011;20730;49.372;7.324;2023-01-29T09:49:08;6.88;;;4.85;;
34489;SDS011;20730;49.372;7.324;2023-01-29T09:51:40;7.18;;;4.88;;
34489;SDS011;20730;49.372;7.324;2023-01-29T09:54:20;5.07;;;4.28;;
34489;SDS011;20730;49.372;7.324;2023-01-29T09:56:49;6.20;;;4.22;;
34489;SDS011;20730;49.372;7.324;2023-01-29T09:59:20;5.70;;;4.68;;
34489;SDS011;20730;49.372;7.324;2023-01-29T10:01:51;6.57;;;4.70;;
34489;SDS011;20730;49.372;7.324;2023-01-29T10:04:25;7.45;;;5.00;;
34489;SDS011;20730;49.372;7.324;2023-01-29T10:12:24;5.97;;;4.25;;
34489;SDS011;20730;49.372;7.324;2023-01-29T10:20:41;4.97;;;4.07;;
34489;SDS011;20730;49.372;7.324;2023-01-29T10:26:15;5.80;;;3.97;;
34489;SDS011;20730;49.372;7.324;2023-01-29T10:28:45;4.80;;;3.85;;
34489;SDS011;20730;49.372;7.324;2023-01-29T10:31:23;5.60;;;3.78;;
34489;SDS011;20730;49.372;7.324;2023-01-29T10:33:53;7.03;;;3.55;;
34489;SDS011;20730;49.372;7.324;2023-01-29T10:36:34;5.53;;;3.80;;
34489;SDS011;20730;49.372;7.324;2023-01-29T10:39:14;5.85;;;3.97;;
34489;SDS011;20730;49.372;7.324;2023-01-29T10:44:57;6.82;;;4.75;;
34489;SDS011;20730;49.372;7.324;2023-01-29T10:50:34;7.30;;;4.90;;
34489;SDS011;20730;49.372;7.324;2023-01-29T10:56:01;7.32;;;5.63;;
34489;SDS011;20730;49.372;7.324;2023-01-29T11:01:20;7.75;;;4.53;;
34489;SDS011;20730;49.372;7.324;2023-01-29T11:03:53;6.03;;;5.05;;
34489;SDS011;20730;49.372;7.324;2023-01-29T11:06:23;8.65;;;5.45;;
34489;SDS011;20730;49.372;7.324;2023-01-29T11:11:53;7.32;;;4.68;;
34489;SDS011;20730;49.372;7.324;2023-01-29T11:14:43;6.40;;;4.70;;
34489;SDS011;20730;49.372;7.324;2023-01-29T11:17:16;6.78;;;4.60;;
34489;SDS011;20730;49.372;7.324;2023-01-29T11:19:45;7.32;;;4.50;;
34489;SDS011;20730;49.372;7.324;2023-01-29T11:22:13;6.07;;;4.60;;
34489;SDS011;20730;49.372;7.324;2023-01-29T11:24:42;7.70;;;5.18;;
34489;SDS011;20730;49.372;7.324;2023-01-29T11:29:52;9.05;;;5.28;;
34489;SDS011;20730;49.372;7.324;2023-01-29T11:35:23;8.50;;;5.53;;
34489;SDS011;20730;49.372;7.324;2023-01-29T11:37:42;8.05;;;5.22;;
34489;SDS011;20730;49.372;7.324;2023-01-29T11:42:46;8.35;;;5.53;;
34489;SDS011;20730;49.372;7.324;2023-01-29T11:47:49;7.60;;;5.82;;
34489;SDS011;20730;49.372;7.324;2023-01-29T11:50:22;7.38;;;5.43;;
34489;SDS011;20730;49.372;7.324;2023-01-29T11:52:50;10.02;;;5.55;;
34489;SDS011;20730;49.372;7.324;2023-01-29T11:57:49;8.40;;;6.10;;
34489;SDS011;20730;49.372;7.324;2023-01-29T12:00:30;8.05;;;5.38;;
34489;SDS011;20730;49.372;7.324;2023-01-29T12:03:15;8.20;;;5.68;;
34489;SDS011;20730;49.372;7.324;2023-01-29T12:06:03;7.25;;;5.07;;
34489;SDS011;20730;49.372;7.324;2023-01-29T12:08:40;8.25;;;5.57;;
34489;SDS011;20730;49.372;7.324;2023-01-29T12:11:22;8.05;;;5.35;;
34489;SDS011;20730;49.372;7.324;2023-01-29T12:13:54;8.95;;;5.30;;
34489;SDS011;20730;49.372;7.324;2023-01-29T12:16:24;7.18;;;5.90;;
34489;SDS011;20730;49.372;7.324;2023-01-29T12:19:00;7.97;;;6.03;;
34489;SDS011;20730;49.372;7.324;2023-01-29T12:21:37;7.88;;;6.03;;
34489;SDS011;20730;49.372;7.324;2023-01-29T12:32:42;9.32;;;5.47;;
34489;SDS011;20730;49.372;7.324;2023-01-29T12:35:21;6.40;;;5.45;;
34489;SDS011;20730;49.372;7.324;2023-01-29T12:38:12;10.02;;;5.75;;
34489;SDS011;20730;49.372;7.324;2023-01-29T12:40:45;9.40;;;6.60;;
34489;SDS011;20730;49.372;7.324;2023-01-29T12:43:16;12.90;;;6.93;;
34489;SDS011;20730;49.372;7.324;2023-01-29T12:45:49;11.07;;;7.15;;
34489;SDS011;20730;49.372;7.324;2023-01-29T12:48:19;10.38;;;7.03;;
34489;SDS011;20730;49.372;7.324;2023-01-29T12:50:51;9.57;;;6.38;;
34489;SDS011;20730;49.372;7.324;2023-01-29T12:55:58;11.93;;;7.65;;
34489;SDS011;20730;49.372;7.324;2023-01-29T12:58:30;12.50;;;8.25;;
34489;SDS011;20730;49.372;7.324;2023-01-29T13:01:02;11.88;;;7.25;;
34489;SDS011;20730;49.372;7.324;2023-01-29T13:03:38;13.88;;;8.48;;
34489;SDS011;20730;49.372;7.324;2023-01-29T13:06:19;18.58;;;9.77;;
34489;SDS011;20730;49.372;7.324;2023-01-29T13:09:14;12.30;;;8.32;;
34489;SDS011;20730;49.372;7.324;2023-01-29T13:11:45;16.98;;;9.10;;
34489;SDS011;20730;49.372;7.324;2023-01-29T13:14:18;16.83;;;9.60;;
34489;SDS011;20730;49.372;7.324;2023-01-29T13:16:48;17.63;;;9.35;;
34489;SDS011;20730;49.372;7.324;2023-01-29T13:19:37;16.15;;;9.45;;
34489;SDS011;20730;49.372;7.324;2023-01-29T13:22:10;14.65;;;9.20;;
34489;SDS011;20730;49.372;7.324;2023-01-29T13:24:42;16.88;;;9.68;;
34489;SDS011;20730;49.372;7.324;2023-01-29T13:27:25;18.45;;;9.57;;
34489;SDS011;20730;49.372;7.324;2023-01-29T13:29:54;14.87;;;8.80;;
34489;SDS011;20730;49.372;7.324;2023-01-29T13:32:23;15.75;;;9.45;;
34489;SDS011;20730;49.372;7.324;2023-01-29T13:34:51;15.32;;;8.85;;
34489;SDS011;20730;49.372;7.324;2023-01-29T13:37:23;13.53;;;9.13;;
34489;SDS011;20730;49.372;7.324;2023-01-29T13:39:53;15.30;;;9.00;;
34489;SDS011;20730;49.372;7.324;2023-01-29T13:42:25;17.83;;;9.57;;
34489;SDS011;20730;49.372;7.324;2023-01-29T13:45:07;15.68;;;9.57;;
34489;SDS011;20730;49.372;7.324;2023-01-29T13:47:35;16.17;;;10.10;;
34489;SDS011;20730;49.372;7.324;2023-01-29T13:50:05;18.17;;;8.40;;
34489;SDS011;20730;49.372;7.324;2023-01-29T13:52:37;16.13;;;9.10;;
34489;SDS011;20730;49.372;7.324;2023-01-29T13:55:07;15.98;;;8.55;;
34489;SDS011;20730;49.372;7.324;2023-01-29T13:57:50;14.40;;;9.05;;
34489;SDS011;20730;49.372;7.324;2023-01-29T14:10:41;17.80;;;9.48;;
34489;SDS011;20730;49.372;7.324;2023-01-29T14:15:43;17.17;;;8.40;;
34489;SDS011;20730;49.372;7.324;2023-01-29T14:18:15;12.90;;;8.25;;
34489;SDS011;20730;49.372;7.324;2023-01-29T14:25:59;13.07;;;8.68;;
34489;SDS011;20730;49.372;7.324;2023-01-29T14:28:28;13.05;;;8.13;;
34489;SDS011;20730;49.372;7.324;2023-01-29T14:30:57;12.77;;;7.82;;
34489;SDS011;20730;49.372;7.324;2023-01-29T14:33:26;13.75;;;8.88;;
34489;SDS011;20730;49.372;7.324;2023-01-29T14:35:57;15.15;;;7.95;;
34489;SDS011;20730;49.372;7.324;2023-01-29T14:38:25;13.20;;;7.93;;
34489;SDS011;20730;49.372;7.324;2023-01-29T14:41:01;16.85;;;8.60;;
34489;SDS011;20730;49.372;7.324;2023-01-29T14:43:30;13.05;;;8.57;;
34489;SDS011;20730;49.372;7.324;2023-01-29T14:46:39;12.18;;;7.43;;
34489;SDS011;20730;49.372;7.324;2023-01-29T14:48:59;12.15;;;7.25;;
34489;SDS011;20730;49.372;7.324;2023-01-29T14:51:25;12.93;;;7.28;;
34489;SDS011;20730;49.372;7.324;2023-01-29T14:53:56;13.15;;;8.10;;
34489;SDS011;20730;49.372;7.324;2023-01-29T15:01:50;14.68;;;9.25;;
34489;SDS011;20730;49.372;7.324;2023-01-29T15:06:58;12.02;;;8.20;;
34489;SDS011;20730;49.372;7.324;2023-01-29T15:09:45;14.38;;;8.13;;
34489;SDS011;20730;49.372;7.324;2023-01-29T15:12:49;13.82;;;8.40;;
34489;SDS011;20730;49.372;7.324;2023-01-29T15:21:02;13.38;;;8.23;;
34489;SDS011;20730;49.372;7.324;2023-01-29T15:23:32;13.32;;;8.63;;
34489;SDS011;20730;49.372;7.324;2023-01-29T15:26:21;14.48;;;8.88;;
34489;SDS011;20730;49.372;7.324;2023-01-29T15:28:54;16.50;;;8.82;;
34489;SDS011;20730;49.372;7.324;2023-01-29T15:31:29;15.43;;;9.05;;
34489;SDS011;20730;49.372;7.324;2023-01-29T15:33:56;16.63;;;9.10;;
34489;SDS011;20730;49.372;7.324;2023-01-29T15:36:26;16.38;;;10.13;;
34489;SDS011;20730;49.372;7.324;2023-01-29T15:41:44;14.75;;;9.57;;
34489;SDS011;20730;49.372;7.324;2023-01-29T15:44:12;20.90;;;8.63;;
34489;SDS011;20730;49.372;7.324;2023-01-29T15:46:42;16.95;;;9.55;;
34489;SDS011;20730;49.372;7.324;2023-01-29T15:49:14;15.17;;;10.20;;
34489;SDS011;20730;49.372;7.324;2023-01-29T15:51:45;17.50;;;10.68;;
34489;SDS011;20730;49.372;7.324;2023-01-29T15:54:13;18.30;;;10.68;;
34489;SDS011;20730;49.372;7.324;2023-01-29T15:56:46;14.82;;;10.20;;
34489;SDS011;20730;49.372;7.324;2023-01-29T15:59:17;17.40;;;11.32;;
34489;SDS011;20730;49.372;7.324;2023-01-29T16:01:45;21.17;;;13.02;;
34489;SDS011;20730;49.372;7.324;2023-01-29T16:04:13;16.75;;;10.98;;
34489;SDS011;20730;49.372;7.324;2023-01-29T16:06:42;19.77;;;11.98;;
34489;SDS011;20730;49.372;7.324;2023-01-29T16:09:10;22.15;;;13.00;;
34489;SDS011;20730;49.372;7.324;2023-01-29T16:11:42;19.55;;;12.50;;
34489;SDS011;20730;49.372;7.324;2023-01-29T16:14:11;22.55;;;12.70;;
34489;SDS011;20730;49.372;7.324;2023-01-29T16:16:39;17.33;;;11.38;;
34489;SDS011;20730;49.372;7.324;2023-01-29T16:19:24;20.60;;;12.93;;
34489;SDS011;20730;49.372;7.324;2023-01-29T16:21:58;18.00;;;11.57;;
34489;SDS011;20730;49.372;7.324;2023-01-29T16:24:26;22.40;;;12.50;;
34489;SDS011;20730;49.372;7.324;2023-01-29T16:26:56;20.63;;;11.75;;
34489;SDS011;20730;49.372;7.324;2023-01-29T16:29:34;21.55;;;12.50;;
34489;SDS011;20730;49.372;7.324;2023-01-29T16:32:01;22.23;;;13.45;;
34489;SDS011;20730;49.372;7.324;2023-01-29T16:34:35;19.02;;;11.98;;
34489;SDS011;20730;49.372;7.324;2023-01-29T16:37:05;23.58;;;14.77;;
34489;SDS011;20730;49.372;7.324;2023-01-29T16:39:42;24.23;;;14.05;;
34489;SDS011;20730;49.372;7.324;2023-01-29T16:44:39;22.40;;;12.05;;
34489;SDS011;20730;49.372;7.324;2023-01-29T16:47:22;24.08;;;14.40;;
34489;SDS011;20730;49.372;7.324;2023-01-29T16:49:53;20.30;;;12.35;;
34489;SDS011;20730;49.372;7.324;2023-01-29T16:52:31;21.15;;;12.93;;
34489;SDS011;20730;49.372;7.324;2023-01-29T16:55:00;22.90;;;13.88;;
34489;SDS011;20730;49.372;7.324;2023-01-29T16:57:29;24.95;;;14.52;;
34489;SDS011;20730;49.372;7.324;2023-01-29T16:59:59;24.50;;;15.07;;
34489;SDS011;20730;49.372;7.324;2023-01-29T17:02:28;22.05;;;12.60;;
34489;SDS011;20730;49.372;7.324;2023-01-29T17:05:02;23.13;;;14.13;;
34489;SDS011;20730;49.372;7.324;2023-01-29T17:07:32;23.48;;;14.13;;
34489;SDS011;20730;49.372;7.324;2023-01-29T17:10:01;23.42;;;14.43;;
34489;SDS011;20730;49.372;7.324;2023-01-29T17:12:30;22.60;;;14.05;;
34489;SDS011;20730;49.372;7.324;2023-01-29T17:14:58;22.17;;;14.52;;
34489;SDS011;20730;49.372;7.324;2023-01-29T17:17:27;27.13;;;14.82;;
34489;SDS011;20730;49.372;7.324;2023-01-29T17:19:56;25.55;;;15.48;;
34489;SDS011;20730;49.372;7.324;2023-01-29T17:22:24;27.10;;;14.95;;
34489;SDS011;20730;49.372;7.324;2023-01-29T17:24:50;26.13;;;15.82;;
34489;SDS011;20730;49.372;7.324;2023-01-29T17:27:18;25.05;;;14.57;;
34489;SDS011;20730;49.372;7.324;2023-01-29T17:29:46;23.58;;;13.95;;